Time;durP1;ratioP1;P1;durP2;ratioP2;P2;SDS_P1;SDS_P2;PMS_P1;PMS_P2;Temp;Humidity;BMP_temperature;BMP_pressure;BME280_temperature;BME280_humidity;BME280_pressure;Samples;Min_cycle;Max_cycle;Signal;HPM_P1;HPM_P2
2022/03/22 00:01:15;;;;;;;71.23;37.53;;;7.70;69.70;;;;;;5074609;28;20223;-69
2022/03/22 00:04:04;;;;;;;65.63;38.20;;;7.70;69.90;;;;;;5074250;28;20230;-67
2022/03/22 00:06:53;;;;;;;74.43;39.00;;;7.70;70.10;;;;;;5058452;28;20677;-68
2022/03/22 00:09:46;;;;;;;71.80;39.00;;;7.70;70.10;;;;;;5058240;28;20882;-69
2022/03/22 00:12:35;;;;;;;71.57;38.83;;;7.70;70.10;;;;;;5058038;28;20220;-68
2022/03/22 00:15:24;;;;;;;75.57;38.63;;;7.70;70.20;;;;;;5072280;28;20682;-66
2022/03/22 00:18:34;;;;;;;73.23;38.47;;;7.60;70.20;;;;;;5075126;28;20703;-66
2022/03/22 00:21:23;;;;;;;73.53;39.70;;;7.60;70.50;;;;;;5053897;28;20239;-67
2022/03/22 00:24:12;;;;;;;82.53;40.57;;;7.60;70.50;;;;;;5071141;28;20216;-68
2022/03/22 00:27:03;;;;;;;81.30;39.80;;;7.60;70.60;;;;;;5073805;28;20261;-65
2022/03/22 00:29:52;;;;;;;74.93;41.17;;;7.60;70.70;;;;;;5071366;28;20678;-65
2022/03/22 00:32:41;;;;;;;76.47;40.97;;;7.60;70.90;;;;;;5074417;28;20224;-66
2022/03/22 00:35:37;;;;;;;74.67;41.47;;;7.50;71.00;;;;;;5073362;28;20227;-69
2022/03/22 00:38:27;;;;;;;82.40;41.90;;;7.40;71.10;;;;;;5074019;28;20681;-68
2022/03/22 00:41:17;;;;;;;80.43;41.47;;;7.50;71.20;;;;;;5059501;28;20224;-67
2022/03/22 00:44:06;;;;;;;80.17;42.10;;;7.40;71.40;;;;;;5069634;28;20237;-66
2022/03/22 00:46:55;;;;;;;88.67;43.53;;;7.40;71.30;;;;;;5056468;28;20216;-67
2022/03/22 00:49:44;;;;;;;83.13;42.20;;;7.40;70.90;;;;;;5072387;28;20236;-66
2022/03/22 00:52:35;;;;;;;83.17;44.47;;;7.40;71.10;;;;;;5054757;28;20216;-67
2022/03/22 00:55:24;;;;;;;85.30;42.37;;;7.40;71.20;;;;;;5054122;28;20212;-65
2022/03/22 00:58:12;;;;;;;88.27;43.23;;;7.40;71.40;;;;;;5071486;28;20235;-69
2022/03/22 01:01:01;;;;;;;82.73;43.43;;;7.30;71.40;;;;;;5053758;28;21073;-67
2022/03/22 01:03:50;;;;;;;77.57;42.57;;;7.20;72.10;;;;;;5054934;28;20483;-68
2022/03/22 01:06:39;;;;;;;89.40;45.30;;;7.10;72.50;;;;;;5067650;28;20220;-67
2022/03/22 01:09:29;;;;;;;88.73;43.83;;;7.20;73.00;;;;;;5054493;28;20246;-69
2022/03/22 01:12:18;;;;;;;94.10;45.17;;;7.10;73.10;;;;;;5070585;28;20227;-68
2022/03/22 01:15:15;;;;;;;89.93;44.60;;;7.20;73.30;;;;;;5072878;28;20223;-68
2022/03/22 01:18:10;;;;;;;88.47;44.77;;;7.10;73.10;;;;;;5072726;28;20220;-67
2022/03/22 01:20:59;;;;;;;88.33;45.60;;;7.00;73.60;;;;;;5059117;28;20220;-67
2022/03/22 01:23:49;;;;;;;85.60;44.20;;;7.00;73.80;;;;;;5069449;28;20339;-67
2022/03/22 01:26:39;;;;;;;89.50;46.00;;;7.00;73.80;;;;;;5058283;28;20219;-68
2022/03/22 01:29:28;;;;;;;92.77;47.17;;;7.00;74.00;;;;;;5049198;28;20211;-68
2022/03/22 01:32:16;;;;;;;94.53;46.67;;;7.10;74.10;;;;;;5072024;28;20334;-67
2022/03/22 01:35:09;;;;;;;83.77;46.50;;;7.00;73.80;;;;;;5069033;28;20270;-67
2022/03/22 01:37:59;;;;;;;95.27;46.57;;;7.00;74.20;;;;;;5072331;28;20352;-67
2022/03/22 01:40:47;;;;;;;103.30;48.53;;;7.00;74.30;;;;;;5054282;28;20216;-67
2022/03/22 01:43:37;;;;;;;91.30;47.07;;;6.90;74.50;;;;;;5058095;28;20223;-68
2022/03/22 01:46:27;;;;;;;98.90;46.67;;;6.90;74.60;;;;;;5074295;28;20332;-68
2022/03/22 01:49:16;;;;;;;87.13;45.97;;;6.80;74.50;;;;;;5073631;28;20831;-67
2022/03/22 01:52:05;;;;;;;101.57;48.17;;;6.80;74.60;;;;;;5057163;28;20774;-68
2022/03/22 01:54:55;;;;;;;92.10;46.57;;;6.70;75.50;;;;;;5068779;28;20231;-68
2022/03/22 01:57:44;;;;;;;94.60;49.00;;;6.50;76.30;;;;;;5053533;28;20212;-68
2022/03/22 02:00:34;;;;;;;104.03;49.00;;;6.50;77.00;;;;;;5071482;28;20306;-68
2022/03/22 02:06:32;;;;;;;104.13;51.07;;;6.50;78.40;;;;;;5054345;28;20232;-69
2022/03/22 02:09:21;;;;;;;96.43;50.03;;;6.30;80.00;;;;;;5051113;28;20258;-68
2022/03/22 02:12:10;;;;;;;102.17;49.67;;;6.40;80.10;;;;;;5059952;28;20234;-69
2022/03/22 02:14:59;;;;;;;96.03;48.83;;;6.30;80.60;;;;;;5072568;28;20223;-69
2022/03/22 02:17:48;;;;;;;110.23;51.97;;;6.20;83.00;;;;;;5061277;28;20273;-67
2022/03/22 02:20:38;;;;;;;108.23;52.37;;;6.30;82.80;;;;;;5068859;28;20223;-68
2022/03/22 02:23:49;;;;;;;110.33;52.80;;;6.40;83.20;;;;;;5055918;28;20223;-69
2022/03/22 02:26:38;;;;;;;108.47;52.67;;;6.40;83.60;;;;;;5067579;28;20230;-69
2022/03/22 02:29:27;;;;;;;107.70;53.77;;;6.30;85.30;;;;;;5069466;28;20589;-68
2022/03/22 02:32:23;;;;;;;104.73;53.17;;;6.20;85.90;;;;;;5047900;28;20226;-68
2022/03/22 02:35:11;;;;;;;105.53;52.70;;;6.20;87.00;;;;;;5070177;28;20320;-66
2022/03/22 02:38:00;;;;;;;106.93;53.53;;;6.20;87.20;;;;;;5070871;28;20256;-66
2022/03/22 02:40:50;;;;;;;110.03;53.03;;;6.20;88.00;;;;;;5067285;28;20242;-67
2022/03/22 02:43:39;;;;;;;115.57;55.83;;;6.20;88.40;;;;;;5057814;28;20757;-67
2022/03/22 02:46:27;;;;;;;113.03;55.47;;;6.20;89.80;;;;;;5074309;28;20227;-66
2022/03/22 02:49:16;;;;;;;116.90;55.67;;;6.10;91.20;;;;;;5073605;28;20237;-67
2022/03/22 02:52:05;;;;;;;110.80;57.70;;;6.20;91.50;;;;;;5071657;28;20607;-67
2022/03/22 02:54:54;;;;;;;115.33;55.87;;;6.20;91.70;;;;;;5068856;28;20224;-67
2022/03/22 02:57:44;;;;;;;114.13;55.07;;;6.20;91.60;;;;;;5069642;28;20226;-68
2022/03/22 03:00:34;;;;;;;115.30;56.40;;;6.20;92.50;;;;;;5057256;28;20657;-67
2022/03/22 03:03:24;;;;;;;115.33;57.07;;;6.20;93.30;;;;;;5059518;28;20228;-65
2022/03/22 03:06:13;;;;;;;116.17;55.70;;;6.10;93.30;;;;;;5070835;28;20228;-67
2022/03/22 03:09:01;;;;;;;109.10;54.37;;;6.10;93.90;;;;;;5049259;28;20231;-67
2022/03/22 03:11:50;;;;;;;114.03;55.13;;;6.10;94.10;;;;;;5053772;28;20231;-67
2022/03/22 03:14:40;;;;;;;109.33;52.90;;;6.10;94.30;;;;;;5071203;28;20336;-66
2022/03/22 03:17:29;;;;;;;111.23;54.53;;;6.00;94.40;;;;;;5054481;28;20227;-67
2022/03/22 03:20:19;;;;;;;106.63;54.90;;;5.90;95.80;;;;;;5055732;28;20232;-66
2022/03/22 03:23:08;;;;;;;103.63;50.87;;;5.90;97.40;;;;;;5068383;28;20908;-66
2022/03/22 03:25:57;;;;;;;107.47;53.20;;;5.90;96.40;;;;;;5071066;28;20247;-67
2022/03/22 03:28:47;;;;;;;105.03;51.53;;;5.80;97.20;;;;;;5054910;28;20374;-67
2022/03/22 03:31:37;;;;;;;108.30;53.03;;;5.70;96.90;;;;;;5067569;28;20237;-67
2022/03/22 03:34:26;;;;;;;118.53;55.77;;;5.70;99.60;;;;;;5069187;28;20278;-68
2022/03/22 03:37:15;;;;;;;109.90;55.90;;;5.80;99.40;;;;;;5066349;28;20234;-67
2022/03/22 03:40:04;;;;;;;114.23;55.53;;;5.80;98.90;;;;;;5074246;28;20226;-68
2022/03/22 03:42:52;;;;;;;109.10;54.93;;;5.80;99.90;;;;;;5050666;28;20224;-68
2022/03/22 03:48:48;;;;;;;111.73;53.83;;;5.80;99.30;;;;;;5059955;28;20219;-67
2022/03/22 03:51:38;;;;;;;103.80;51.83;;;5.80;99.80;;;;;;5075541;28;20238;-68
2022/03/22 03:54:26;;;;;;;110.60;54.40;;;5.80;98.80;;;;;;5060153;28;20215;-66
2022/03/22 03:57:18;;;;;;;116.03;53.83;;;5.80;99.40;;;;;;5059879;28;20235;-66
2022/03/22 04:00:08;;;;;;;102.73;52.20;;;5.80;99.90;;;;;;5058579;28;20712;-67
2022/03/22 04:02:59;;;;;;;103.60;52.73;;;5.70;99.90;;;;;;5067380;28;20322;-67
2022/03/22 04:05:49;;;;;;;109.97;55.37;;;5.70;99.90;;;;;;5063520;28;20281;-67
2022/03/22 04:08:38;;;;;;;109.60;52.93;;;5.70;99.90;;;;;;5052798;28;20223;-68
2022/03/22 04:11:30;;;;;;;114.50;57.13;;;5.60;99.90;;;;;;5055171;28;20308;-69
2022/03/22 04:14:19;;;;;;;125.27;60.47;;;5.70;99.90;;;;;;5067813;28;20886;-69
2022/03/22 04:17:08;;;;;;;128.47;61.03;;;5.70;99.90;;;;;;5070364;28;20212;-68
2022/03/22 04:19:57;;;;;;;121.10;55.73;;;5.60;99.90;;;;;;5072956;28;20318;-69
2022/03/22 04:22:48;;;;;;;123.37;61.37;;;5.60;99.90;;;;;;5060675;28;20283;-67
2022/03/22 04:25:40;;;;;;;130.03;64.07;;;5.60;99.90;;;;;;5061597;28;20233;-68
2022/03/22 04:34:44;;;;;;;130.97;64.83;;;5.70;99.90;;;;;;5062042;28;20237;-68
2022/03/22 04:37:32;;;;;;;137.67;64.80;;;5.60;99.90;;;;;;5064707;28;20242;-68
2022/03/22 04:40:26;;;;;;;141.00;68.93;;;5.60;99.90;;;;;;5062552;28;20731;-67
2022/03/22 04:43:14;;;;;;;171.50;76.90;;;5.60;99.90;;;;;;5074968;28;20231;-64
2022/03/22 04:46:03;;;;;;;184.67;83.70;;;5.50;99.90;;;;;;5057864;28;20234;-64
2022/03/22 04:48:52;;;;;;;186.10;84.90;;;5.50;99.90;;;;;;5072987;28;20233;-63
2022/03/22 04:57:55;;;;;;;183.37;82.60;;;5.50;99.90;;;;;;5070579;28;20220;-64
2022/03/22 05:00:48;;;;;;;162.30;76.30;;;5.50;99.90;;;;;;5055682;28;20223;-65
2022/03/22 05:03:37;;;;;;;168.23;77.03;;;5.50;99.90;;;;;;5060988;28;20257;-66
2022/03/22 05:06:26;;;;;;;159.27;75.80;;;5.50;99.90;;;;;;5072531;28;20230;-65
2022/03/22 05:09:15;;;;;;;148.60;72.80;;;5.50;99.90;;;;;;5058104;28;20242;-66
2022/03/22 05:12:04;;;;;;;154.90;75.70;;;5.50;99.90;;;;;;5074231;28;20234;-64
2022/03/22 05:14:54;;;;;;;172.20;76.87;;;5.50;99.90;;;;;;5071832;28;20223;-65
2022/03/22 05:17:43;;;;;;;157.57;74.70;;;5.40;99.90;;;;;;5076329;28;20257;-65
2022/03/22 05:20:32;;;;;;;177.07;79.90;;;5.20;99.90;;;;;;5077627;28;20238;-68
2022/03/22 05:23:21;;;;;;;169.47;77.57;;;5.40;99.90;;;;;;5074842;28;20318;-66
2022/03/22 05:26:09;;;;;;;164.50;77.83;;;5.40;99.90;;;;;;5074064;28;20283;-67
2022/03/22 05:28:58;;;;;;;158.47;77.20;;;5.50;99.90;;;;;;5076261;28;20219;-69
2022/03/22 05:31:49;;;;;;;161.40;76.77;;;5.50;99.90;;;;;;5073546;28;20299;-67
2022/03/22 05:34:37;;;;;;;156.87;76.80;;;5.30;99.90;;;;;;5055646;28;20343;-69
2022/03/22 05:37:26;;;;;;;163.63;77.40;;;5.50;99.90;;;;;;5074047;28;20255;-67
2022/03/22 05:40:16;;;;;;;163.03;78.03;;;5.50;99.90;;;;;;5072012;28;20235;-69
2022/03/22 05:43:04;;;;;;;167.57;77.13;;;5.40;99.90;;;;;;5047704;28;20230;-66
2022/03/22 05:45:56;;;;;;;166.13;79.67;;;5.30;99.90;;;;;;5053645;28;20229;-67
2022/03/22 05:48:48;;;;;;;162.53;77.23;;;5.50;99.90;;;;;;5061038;28;20238;-67
2022/03/22 05:51:41;;;;;;;149.23;76.77;;;5.60;99.90;;;;;;5070034;28;20245;-68
2022/03/22 05:54:30;;;;;;;151.70;75.23;;;5.70;99.90;;;;;;5059072;28;20224;-68
2022/03/22 05:57:19;;;;;;;156.80;73.90;;;5.70;99.90;;;;;;5072970;28;20223;-67
2022/03/22 06:00:10;;;;;;;153.67;71.50;;;5.80;99.90;;;;;;5075401;28;20233;-66
2022/03/22 06:02:59;;;;;;;144.07;67.47;;;5.80;99.90;;;;;;5057247;28;20303;-68
2022/03/22 06:05:50;;;;;;;144.53;69.97;;;5.70;99.90;;;;;;5071246;28;20590;-68
2022/03/22 06:08:39;;;;;;;145.53;68.30;;;5.80;99.90;;;;;;5074384;28;20224;-68
2022/03/22 06:11:34;;;;;;;140.10;67.80;;;5.80;99.90;;;;;;5074273;28;20219;-66
2022/03/22 06:14:23;;;;;;;131.33;64.27;;;6.00;99.90;;;;;;5062471;28;20229;-67
2022/03/22 06:17:12;;;;;;;140.20;65.57;;;6.10;99.90;;;;;;5061077;28;20229;-64
2022/03/22 06:20:01;;;;;;;134.27;66.30;;;6.10;99.90;;;;;;5070004;28;20221;-64
2022/03/22 06:22:52;;;;;;;145.73;67.43;;;6.20;99.90;;;;;;5059327;28;20224;-65
2022/03/22 06:25:42;;;;;;;132.43;64.67;;;6.40;99.90;;;;;;5072266;28;20220;-65
2022/03/22 06:28:30;;;;;;;138.47;64.77;;;6.40;99.90;;;;;;5070572;28;20227;-67
2022/03/22 06:31:19;;;;;;;127.07;62.53;;;6.40;99.90;;;;;;5070666;28;20239;-65
2022/03/22 06:34:07;;;;;;;132.60;61.17;;;6.40;99.90;;;;;;5049513;28;20245;-65
2022/03/22 06:36:56;;;;;;;121.27;59.70;;;6.50;99.90;;;;;;5069841;28;20333;-65
2022/03/22 06:39:46;;;;;;;119.80;59.23;;;6.70;99.90;;;;;;5058224;28;20227;-65
2022/03/22 06:42:36;;;;;;;118.40;59.00;;;6.80;99.90;;;;;;5067126;28;20223;-64
2022/03/22 06:45:25;;;;;;;121.40;60.20;;;6.80;99.90;;;;;;5053974;28;20227;-67
2022/03/22 06:48:15;;;;;;;124.63;60.00;;;6.90;99.90;;;;;;5058201;28;20234;-65
2022/03/22 06:51:04;;;;;;;124.63;62.20;;;7.00;99.90;;;;;;5072614;28;20274;-65
2022/03/22 06:53:53;;;;;;;121.20;58.20;;;7.10;99.90;;;;;;5069509;28;20234;-64
2022/03/22 06:56:44;;;;;;;111.90;61.03;;;7.20;99.90;;;;;;5059562;28;20231;-66
2022/03/22 06:59:33;;;;;;;117.10;60.07;;;7.30;99.90;;;;;;5060477;28;20284;-65
2022/03/22 07:02:21;;;;;;;115.20;57.40;;;7.40;99.90;;;;;;5053234;28;20268;-64
2022/03/22 07:05:11;;;;;;;96.33;52.10;;;7.50;99.90;;;;;;5061390;28;20224;-65
2022/03/22 07:08:00;;;;;;;110.93;56.00;;;7.60;99.00;;;;;;5074031;28;20235;-63
2022/03/22 07:13:53;;;;;;;113.53;53.83;;;7.80;97.70;;;;;;5073182;28;20326;-63
2022/03/22 07:16:42;;;;;;;102.40;49.67;;;7.90;97.10;;;;;;5069667;28;20707;-69
2022/03/22 07:19:30;;;;;;;98.50;50.10;;;8.00;95.70;;;;;;5073021;28;20236;-67
2022/03/22 07:22:19;;;;;;;103.83;51.13;;;8.10;95.00;;;;;;5074520;28;20233;-66
2022/03/22 07:25:09;;;;;;;103.77;51.43;;;8.10;94.50;;;;;;5075919;28;20981;-66
2022/03/22 07:27:58;;;;;;;97.97;50.37;;;8.20;94.20;;;;;;5076525;28;20703;-67
2022/03/22 07:30:48;;;;;;;95.93;49.67;;;8.30;93.90;;;;;;5061529;28;20276;-66
2022/03/22 07:33:37;;;;;;;91.77;48.30;;;8.40;93.30;;;;;;5064898;28;20799;-67
2022/03/22 07:36:26;;;;;;;97.60;48.40;;;8.50;92.10;;;;;;5080413;28;20825;-67
2022/03/22 07:39:38;;;;;;;91.47;49.03;;;8.60;92.00;;;;;;5076236;28;20298;-68
2022/03/22 07:42:29;;;;;;;92.67;49.07;;;8.80;90.60;;;;;;5071716;28;20376;-66
2022/03/22 07:45:19;;;;;;;90.73;48.40;;;8.90;89.50;;;;;;5062740;28;20243;-66
2022/03/22 07:48:09;;;;;;;92.47;45.63;;;9.10;87.20;;;;;;5061973;28;20216;-67
2022/03/22 07:54:04;;;;;;;88.47;44.87;;;9.50;81.50;;;;;;5065332;28;20704;-66
2022/03/22 07:56:53;;;;;;;81.65;44.03;;;9.80;80.30;;;;;;5059162;28;20231;-63
2022/03/22 07:59:42;;;;;;;81.70;41.85;;;10.30;77.50;;;;;;5075573;28;20224;-63
2022/03/22 08:02:32;;;;;;;73.93;40.40;;;13.00;72.80;;;;;;5074747;28;20224;-63
2022/03/22 08:05:23;;;;;;;71.80;39.88;;;16.30;64.00;;;;;;5055338;28;20274;-63
2022/03/22 08:08:12;;;;;;;80.40;41.50;;;18.30;57.70;;;;;;5073194;28;20231;-63
2022/03/22 08:11:20;;;;;;;62.85;36.70;;;19.60;54.10;;;;;;5074358;28;20238;-63
2022/03/22 08:14:09;;;;;;;66.68;37.05;;;20.00;51.50;;;;;;5058464;28;20290;-63
2022/03/22 08:16:59;;;;;;;63.92;36.45;;;20.70;49.90;;;;;;5060944;28;20219;-64
2022/03/22 08:19:49;;;;;;;60.00;35.85;;;20.40;50.10;;;;;;5064236;28;20255;-64
2022/03/22 08:22:50;;;;;;;59.28;37.08;;;21.30;49.50;;;;;;5057728;28;20279;-63
2022/03/22 08:25:46;;;;;;;67.32;37.17;;;21.90;47.70;;;;;;5075034;28;20264;-62
2022/03/22 08:28:35;;;;;;;60.95;36.35;;;22.80;46.80;;;;;;5075554;28;20235;-63
2022/03/22 08:31:24;;;;;;;61.05;35.83;;;23.10;46.50;;;;;;5070430;28;20227;-62
2022/03/22 08:34:13;;;;;;;58.35;37.58;;;23.90;44.30;;;;;;5061939;28;20223;-65
2022/03/22 08:37:02;;;;;;;57.40;37.30;;;24.30;43.50;;;;;;5072843;28;20530;-65
2022/03/22 08:39:52;;;;;;;63.95;38.72;;;24.10;44.00;;;;;;5075470;28;20220;-64
2022/03/22 08:42:43;;;;;;;57.53;36.65;;;24.40;43.40;;;;;;5067594;28;20219;-65
2022/03/22 08:45:35;;;;;;;58.83;35.15;;;25.20;42.40;;;;;;5075897;28;20277;-65
2022/03/22 08:48:25;;;;;;;53.50;36.65;;;25.40;41.30;;;;;;5075515;28;20544;-64
2022/03/22 08:51:16;;;;;;;53.53;35.58;;;25.50;42.30;;;;;;5070947;28;20303;-64
2022/03/22 08:54:05;;;;;;;53.88;34.10;;;25.80;41.00;;;;;;5073295;28;20304;-72
2022/03/22 08:56:55;;;;;;;49.95;33.72;;;25.50;40.60;;;;;;5073377;28;20228;-65
2022/03/22 08:59:43;;;;;;;49.80;33.90;;;26.30;40.20;;;;;;5052326;28;20343;-65
2022/03/22 09:02:32;;;;;;;46.25;33.22;;;26.90;39.50;;;;;;5067888;28;20376;-64
2022/03/22 09:08:27;;;;;;;54.95;36.10;;;25.40;40.50;;;;;;5053506;28;20284;-65
2022/03/22 09:11:19;;;;;;;51.13;35.17;;;26.00;40.30;;;;;;5074007;28;20224;-64
2022/03/22 09:14:10;;;;;;;49.45;32.10;;;26.20;40.00;;;;;;5070355;28;20814;-66
2022/03/22 09:16:58;;;;;;;48.80;31.90;;;26.40;39.30;;;;;;5058630;28;20219;-65
2022/03/22 09:19:47;;;;;;;52.05;30.52;;;25.40;39.20;;;;;;5075826;28;20218;-65
2022/03/22 09:22:48;;;;;;;38.97;27.30;;;21.90;41.70;;;;;;5054081;28;20220;-65
2022/03/22 09:25:37;;;;;;;88.45;30.13;;;19.80;45.00;;;;;;5069305;28;20981;-64
2022/03/22 09:28:26;;;;;;;49.35;28.98;;;18.60;47.50;;;;;;5073725;28;20243;-66
2022/03/22 09:31:16;;;;;;;47.95;27.33;;;17.60;49.50;;;;;;5072628;28;20674;-65
2022/03/22 09:34:05;;;;;;;43.88;26.77;;;16.70;51.10;;;;;;5061852;28;20227;-64
2022/03/22 09:36:56;;;;;;;47.80;26.38;;;16.40;52.60;;;;;;5070233;28;20231;-65
2022/03/22 09:39:45;;;;;;;40.35;25.50;;;16.30;52.70;;;;;;5044303;28;20227;-65
2022/03/22 09:42:34;;;;;;;45.72;25.88;;;16.20;52.50;;;;;;5072879;28;20310;-66
2022/03/22 09:45:25;;;;;;;43.65;24.60;;;15.90;52.80;;;;;;5072225;28;20417;-65
2022/03/22 09:48:16;;;;;;;41.22;22.75;;;15.90;52.70;;;;;;5073019;28;20228;-65
2022/03/22 09:54:12;;;;;;;40.63;24.08;;;15.70;52.70;;;;;;5061753;28;20313;-66
2022/03/22 09:57:04;;;;;;;37.50;22.83;;;15.40;53.30;;;;;;5070957;28;20722;-65
2022/03/22 09:59:56;;;;;;;36.30;22.85;;;15.40;53.20;;;;;;5071002;28;20227;-65
2022/03/22 10:02:45;;;;;;;37.00;22.17;;;15.30;53.40;;;;;;5059282;28;20223;-65
2022/03/22 10:05:39;;;;;;;39.00;21.90;;;15.30;53.70;;;;;;5071277;28;20223;-66
2022/03/22 10:08:27;;;;;;;30.40;18.60;;;15.40;53.60;;;;;;5072664;28;20688;-65
2022/03/22 10:11:17;;;;;;;32.00;19.85;;;15.20;53.60;;;;;;5074448;28;20247;-64
2022/03/22 10:14:08;;;;;;;29.98;19.13;;;15.20;53.30;;;;;;5073072;28;20767;-65
2022/03/22 10:16:57;;;;;;;29.40;18.15;;;15.20;53.10;;;;;;5058923;28;20655;-66
2022/03/22 10:19:48;;;;;;;36.05;20.25;;;15.20;52.80;;;;;;5074009;28;20315;-64
2022/03/22 10:22:38;;;;;;;35.33;21.13;;;15.20;53.30;;;;;;5073724;28;20228;-66
2022/03/22 10:25:31;;;;;;;35.10;21.98;;;15.10;53.70;;;;;;5058743;28;20234;-65
2022/03/22 10:28:21;;;;;;;33.50;20.85;;;14.70;54.30;;;;;;5070330;28;20226;-65
2022/03/22 10:31:10;;;;;;;38.83;21.02;;;14.90;54.70;;;;;;5073259;28;20220;-65
2022/03/22 10:33:59;;;;;;;39.15;22.38;;;14.90;54.60;;;;;;5072613;28;20273;-64
2022/03/22 10:36:49;;;;;;;39.38;21.63;;;14.90;54.50;;;;;;5076016;28;20235;-65
2022/03/22 10:39:43;;;;;;;46.42;22.15;;;14.90;54.60;;;;;;5073843;28;20261;-63
2022/03/22 10:42:33;;;;;;;35.17;21.40;;;14.80;55.40;;;;;;5071430;28;20220;-64
2022/03/22 10:45:22;;;;;;;38.80;22.23;;;14.90;55.10;;;;;;5062732;28;20242;-65
2022/03/22 10:48:11;;;;;;;28.48;17.20;;;14.80;55.20;;;;;;5071540;28;20234;-63
2022/03/22 10:51:01;;;;;;;32.67;17.80;;;15.00;53.80;;;;;;5075427;28;20230;-65
2022/03/22 10:53:50;;;;;;;32.80;18.83;;;15.00;52.60;;;;;;5062579;28;20220;-64
2022/03/22 10:56:44;;;;;;;26.02;16.95;;;15.00;53.80;;;;;;5062100;28;20223;-63
2022/03/22 10:59:34;;;;;;;30.10;16.25;;;15.10;52.70;;;;;;5075059;28;20318;-65
2022/03/22 11:02:25;;;;;;;31.70;16.08;;;15.00;52.10;;;;;;5077969;28;20222;-64
2022/03/22 11:05:15;;;;;;;30.60;16.83;;;15.00;52.30;;;;;;5060301;28;20307;-65
2022/03/22 11:08:05;;;;;;;30.73;16.90;;;15.00;52.50;;;;;;5075425;28;20279;-65
2022/03/22 11:10:54;;;;;;;30.15;15.98;;;15.10;52.30;;;;;;5054808;28;20323;-66
2022/03/22 11:13:45;;;;;;;27.05;16.60;;;15.20;52.00;;;;;;5072182;28;20353;-67
2022/03/22 11:16:35;;;;;;;26.05;15.93;;;15.20;51.40;;;;;;5077160;28;20257;-64
2022/03/22 11:19:25;;;;;;;29.90;17.05;;;15.00;51.80;;;;;;5075082;28;20215;-66
2022/03/22 11:22:18;;;;;;;32.58;16.75;;;15.10;51.90;;;;;;5075986;28;20219;-65
2022/03/22 11:25:11;;;;;;;26.20;16.88;;;15.20;52.10;;;;;;5074104;28;20231;-64
2022/03/22 11:28:05;;;;;;;26.35;16.13;;;15.20;51.90;;;;;;5076967;28;20223;-64
2022/03/22 11:30:55;;;;;;;30.27;16.52;;;15.30;52.00;;;;;;5063857;28;20219;-65
2022/03/22 11:37:07;;;;;;;31.45;16.17;;;15.20;52.50;;;;;;4994794;28;20254;-65
2022/03/22 11:43:10;;;;;;;28.30;16.05;;;15.30;52.30;;;;;;5038320;28;20228;-64
2022/03/22 11:46:00;;;;;;;25.70;16.30;;;15.30;51.80;;;;;;5039365;28;21072;-69
2022/03/22 11:48:55;;;;;;;24.60;14.98;;;15.30;51.60;;;;;;5044277;28;20303;-67
2022/03/22 11:51:52;;;;;;;23.27;14.20;;;15.30;51.50;;;;;;5054424;28;20318;-67
2022/03/22 11:54:41;;;;;;;24.17;14.50;;;15.30;51.90;;;;;;5056495;28;20217;-66
2022/03/22 11:57:42;;;;;;;28.17;14.25;;;15.30;51.80;;;;;;5055518;28;20289;-66
2022/03/22 12:00:42;;;;;;;24.15;14.40;;;15.30;51.80;;;;;;5059318;28;20224;-65
2022/03/22 12:03:35;;;;;;;25.95;15.02;;;15.20;51.80;;;;;;5060841;28;20247;-66
2022/03/22 12:06:33;;;;;;;24.33;14.43;;;15.00;52.00;;;;;;5060453;28;20943;-67
2022/03/22 12:09:26;;;;;;;23.67;14.77;;;15.10;52.20;;;;;;5041363;28;20284;-65
2022/03/22 12:12:17;;;;;;;25.33;14.40;;;15.20;52.20;;;;;;5057361;28;20232;-66
2022/03/22 12:15:08;;;;;;;24.70;14.60;;;15.20;52.30;;;;;;5059501;28;20703;-65
2022/03/22 12:18:00;;;;;;;24.67;14.73;;;15.20;52.40;;;;;;5058432;28;20227;-65
2022/03/22 12:20:55;;;;;;;26.67;14.13;;;15.20;52.40;;;;;;5059973;28;20255;-65
2022/03/22 12:23:45;;;;;;;27.13;14.43;;;15.20;52.50;;;;;;5057958;28;20224;-65
2022/03/22 12:26:34;;;;;;;20.98;13.80;;;15.30;52.40;;;;;;5048981;28;20575;-67
2022/03/22 12:29:25;;;;;;;23.00;13.60;;;15.30;52.30;;;;;;5041404;28;20228;-65
2022/03/22 12:32:16;;;;;;;24.63;14.48;;;15.40;52.00;;;;;;5053077;28;20219;-65
2022/03/22 12:35:06;;;;;;;22.98;14.20;;;15.40;51.90;;;;;;5042332;28;20231;-63
2022/03/22 12:37:57;;;;;;;25.88;14.30;;;15.40;51.60;;;;;;5052447;28;20224;-65
2022/03/22 12:40:47;;;;;;;24.08;13.98;;;15.40;51.50;;;;;;5038625;28;20256;-66
2022/03/22 12:43:36;;;;;;;20.83;13.50;;;15.40;51.50;;;;;;5056973;28;20756;-66
2022/03/22 12:46:26;;;;;;;23.08;12.93;;;15.30;51.60;;;;;;5053884;28;20817;-65
2022/03/22 12:49:17;;;;;;;24.90;13.70;;;15.40;51.60;;;;;;5054040;28;20235;-65
2022/03/22 12:52:07;;;;;;;28.23;13.60;;;15.50;51.60;;;;;;5054214;28;20217;-64
2022/03/22 12:54:58;;;;;;;26.00;13.52;;;15.50;51.40;;;;;;5043699;28;20228;-64
2022/03/22 12:57:48;;;;;;;19.55;13.10;;;15.50;51.50;;;;;;5058183;28;20572;-64
2022/03/22 13:00:40;;;;;;;22.77;13.27;;;15.50;51.40;;;;;;5056866;28;20238;-66
2022/03/22 13:03:29;;;;;;;20.05;12.98;;;15.50;51.40;;;;;;5044432;28;21115;-68
2022/03/22 13:06:20;;;;;;;25.33;13.38;;;15.50;51.50;;;;;;5038220;28;20271;-65
2022/03/22 13:12:17;;;;;;;20.80;14.15;;;15.60;51.50;;;;;;5050931;28;20228;-65
2022/03/22 13:15:09;;;;;;;23.73;14.63;;;15.60;51.70;;;;;;5058824;28;20251;-65
2022/03/22 13:17:57;;;;;;;21.23;13.55;;;15.50;51.90;;;;;;5035463;28;20227;-66
2022/03/22 13:20:46;;;;;;;22.35;14.00;;;15.50;52.00;;;;;;5054838;28;20228;-66
2022/03/22 13:23:35;;;;;;;25.00;14.35;;;15.50;52.00;;;;;;5057187;28;20319;-66
2022/03/22 13:26:28;;;;;;;22.83;14.32;;;15.50;51.90;;;;;;5037002;28;20244;-66
2022/03/22 13:29:19;;;;;;;23.98;13.80;;;15.50;52.40;;;;;;5041112;28;20235;-65
2022/03/22 13:32:10;;;;;;;25.40;14.13;;;15.50;51.80;;;;;;5053606;28;20225;-66
2022/03/22 13:35:05;;;;;;;23.65;14.00;;;15.50;51.80;;;;;;5033847;28;20263;-65
2022/03/22 13:37:54;;;;;;;30.13;14.77;;;15.50;51.60;;;;;;5061449;28;20255;-66
2022/03/22 13:40:46;;;;;;;27.55;15.25;;;15.60;51.50;;;;;;5072610;28;20226;-66
2022/03/22 13:43:45;;;;;;;23.92;13.93;;;15.50;51.40;;;;;;5076327;28;20211;-66
2022/03/22 13:46:35;;;;;;;25.08;14.25;;;15.50;51.60;;;;;;5068860;28;20899;-66
2022/03/22 13:49:34;;;;;;;23.85;14.50;;;15.40;51.80;;;;;;5064345;28;20223;-64
2022/03/22 13:52:27;;;;;;;26.55;14.07;;;15.40;51.50;;;;;;5076966;28;20216;-65
2022/03/22 13:55:18;;;;;;;22.92;13.77;;;15.50;51.60;;;;;;5056623;28;20230;-65
2022/03/22 13:58:11;;;;;;;27.35;13.88;;;15.60;51.50;;;;;;5075742;28;20224;-66
2022/03/22 14:01:13;;;;;;;20.95;14.18;;;15.50;51.40;;;;;;5072430;28;20220;-65
2022/03/22 14:04:03;;;;;;;21.48;13.73;;;15.50;51.30;;;;;;5069947;28;20269;-66
2022/03/22 14:06:52;;;;;;;24.10;14.77;;;15.60;50.90;;;;;;5056963;28;20216;-65
2022/03/22 14:09:41;;;;;;;22.40;13.43;;;15.60;50.90;;;;;;5070595;28;20216;-65
2022/03/22 14:12:30;;;;;;;25.25;13.40;;;15.60;51.20;;;;;;5053499;28;20230;-67
2022/03/22 14:15:19;;;;;;;20.85;13.32;;;15.50;51.00;;;;;;5065097;28;20688;-65
2022/03/22 14:18:08;;;;;;;21.48;13.48;;;15.50;51.30;;;;;;5059061;28;20230;-65
2022/03/22 14:20:58;;;;;;;25.25;13.93;;;15.50;51.60;;;;;;5055418;28;20326;-62
2022/03/22 15:56:51;;;;;;;17.95;10.93;;;15.00;51.60;;;;;;5036829;27;20727;-64
2022/03/22 15:59:39;;;;;;;18.60;10.60;;;15.00;52.00;;;;;;5049899;28;20805;-65
2022/03/22 16:02:28;;;;;;;17.88;11.25;;;15.00;51.80;;;;;;5071853;28;20237;-64
2022/03/22 16:05:17;;;;;;;17.38;11.32;;;15.00;51.80;;;;;;5072855;28;20242;-65
2022/03/22 16:08:07;;;;;;;18.58;10.95;;;15.00;51.80;;;;;;5060850;28;20215;-65
2022/03/22 16:10:56;;;;;;;23.63;12.00;;;15.00;51.70;;;;;;5075301;28;20222;-65
2022/03/22 16:13:47;;;;;;;17.52;11.43;;;14.90;51.80;;;;;;5078428;28;20223;-65
2022/03/22 16:16:36;;;;;;;19.92;12.75;;;14.90;52.10;;;;;;5088226;28;20239;-66
2022/03/22 16:19:24;;;;;;;25.73;12.30;;;14.80;52.20;;;;;;5076270;28;20215;-65
2022/03/22 16:22:14;;;;;;;21.58;11.93;;;14.80;52.40;;;;;;5078067;28;20216;-66
2022/03/22 16:25:03;;;;;;;22.17;12.70;;;14.80;53.00;;;;;;5092470;27;20789;-65
2022/03/22 16:27:55;;;;;;;22.33;12.07;;;14.80;52.30;;;;;;5084241;28;20724;-65
2022/03/22 16:30:49;;;;;;;20.75;12.20;;;14.70;52.20;;;;;;5078180;28;20214;-64
2022/03/22 16:36:59;;;;;;;18.77;12.45;;;14.80;52.20;;;;;;5002866;28;20229;-65
2022/03/22 16:39:53;;;;;;;22.88;13.25;;;14.80;52.20;;;;;;4999480;28;20717;-66
2022/03/22 16:42:42;;;;;;;18.90;12.48;;;14.70;52.50;;;;;;5049470;28;20223;-66